createdAt,value
2019-01-20T00:01:20.414Z,10.38
2019-01-20T00:03:47.639Z,10.82
2019-01-20T00:06:14.859Z,8.98
2019-01-20T00:08:42.163Z,12.33
2019-01-20T00:11:16.416Z,11.70
2019-01-20T00:13:38.321Z,10.10
2019-01-20T00:16:05.550Z,13.85
2019-01-20T00:18:32.768Z,10.08
2019-01-20T00:21:00.036Z,9.65
2019-01-20T00:23:27.278Z,11.53
2019-01-20T00:25:54.507Z,13.53
2019-01-20T00:28:21.814Z,10.75
2019-01-20T00:30:49.153Z,12.00
2019-01-20T00:33:16.374Z,12.33
2019-01-20T00:35:43.603Z,10.45
2019-01-20T00:38:10.832Z,10.00
2019-01-20T00:40:38.054Z,10.98
2019-01-20T00:43:05.275Z,11.95
2019-01-20T00:45:32.532Z,15.83
2019-01-20T00:47:59.742Z,13.40
2019-01-20T00:50:26.982Z,13.80
2019-01-20T00:52:54.202Z,12.25
2019-01-20T00:55:21.430Z,13.55
2019-01-20T00:57:48.743Z,13.38
2019-01-20T01:00:20.621Z,14.70
2019-01-20T01:02:47.830Z,14.58
2019-01-20T01:05:15.538Z,13.90
2019-01-20T01:07:42.751Z,13.85
2019-01-20T01:10:10.057Z,12.85
2019-01-20T01:12:37.552Z,13.93
2019-01-20T01:15:05.851Z,13.15
2019-01-20T01:17:33.079Z,14.60
2019-01-20T01:20:00.306Z,12.28
2019-01-20T01:22:27.519Z,13.85
2019-01-20T01:24:54.742Z,14.63
2019-01-20T01:27:22.003Z,15.55
2019-01-20T01:29:49.190Z,14.50
2019-01-20T01:32:16.433Z,14.33
2019-01-20T01:34:43.651Z,14.28
2019-01-20T01:37:10.887Z,12.53
2019-01-20T01:39:38.098Z,18.37
2019-01-20T01:42:05.327Z,17.05
2019-01-20T01:44:32.556Z,13.15
2019-01-20T01:46:59.781Z,16.80
2019-01-20T01:49:26.999Z,14.45
2019-01-20T01:51:54.242Z,13.75
2019-01-20T01:54:21.692Z,12.80
2019-01-20T01:56:48.919Z,14.38
2019-01-20T01:59:16.206Z,15.23
2019-01-20T02:01:43.439Z,14.68
2019-01-20T02:04:10.662Z,12.70
2019-01-20T02:06:37.885Z,13.98
2019-01-20T02:09:06.376Z,10.43
2019-01-20T02:11:33.598Z,15.48
2019-01-20T02:14:00.814Z,15.98
2019-01-20T02:16:28.039Z,14.73
2019-01-20T02:18:55.256Z,15.88
2019-01-20T02:21:23.307Z,15.18
2019-01-20T02:23:50.529Z,16.73
2019-01-20T02:26:17.754Z,15.95
2019-01-20T02:28:44.977Z,15.18
2019-01-20T02:31:12.259Z,15.78
2019-01-20T02:33:39.484Z,15.55
2019-01-20T02:36:06.715Z,14.60
2019-01-20T02:38:33.927Z,14.60
2019-01-20T02:41:01.154Z,16.70
2019-01-20T02:43:28.779Z,13.70
2019-01-20T02:45:55.991Z,14.80
2019-01-20T02:48:23.237Z,14.10
2019-01-20T02:50:50.440Z,16.97
2019-01-20T02:53:17.679Z,11.95
2019-01-20T02:55:44.902Z,16.82
2019-01-20T02:58:12.129Z,16.62
2019-01-20T03:00:39.330Z,13.03
2019-01-20T03:03:06.556Z,13.10
2019-01-20T03:05:33.771Z,12.35
2019-01-20T03:08:01.003Z,16.97
2019-01-20T03:10:28.224Z,14.43
2019-01-20T03:12:55.453Z,16.05
2019-01-20T03:15:22.662Z,16.45
2019-01-20T03:17:50.158Z,10.28
2019-01-20T03:20:18.643Z,14.33
2019-01-20T03:22:45.929Z,13.08
2019-01-20T03:25:14.034Z,15.90
2019-01-20T03:27:41.266Z,12.10
2019-01-20T03:30:10.030Z,16.07
2019-01-20T03:32:37.253Z,15.75
2019-01-20T03:35:06.038Z,15.83
2019-01-20T03:37:33.258Z,14.38
2019-01-20T03:40:00.477Z,14.15
2019-01-20T03:42:27.698Z,14.60
2019-01-20T03:44:54.914Z,16.70
2019-01-20T03:47:22.143Z,12.90
2019-01-20T03:49:49.359Z,16.25
2019-01-20T03:52:16.590Z,12.98
2019-01-20T03:54:43.814Z,14.63
2019-01-20T03:57:11.034Z,16.27
2019-01-20T03:59:38.266Z,18.23
2019-01-20T04:02:05.556Z,12.30
2019-01-20T04:04:32.787Z,11.88
2019-01-20T04:07:00.004Z,13.75
2019-01-20T04:09:27.234Z,15.50
2019-01-20T04:11:54.448Z,14.87
2019-01-20T04:14:21.681Z,8.88
2019-01-20T04:16:48.891Z,9.53
2019-01-20T04:19:16.129Z,15.03
2019-01-20T04:21:43.351Z,14.98
2019-01-20T04:24:10.584Z,14.87
2019-01-20T04:26:37.801Z,14.85
2019-01-20T04:29:05.026Z,11.75
2019-01-20T04:31:32.245Z,16.37
2019-01-20T04:33:59.521Z,13.15
2019-01-20T04:36:26.760Z,14.70
2019-01-20T04:38:53.982Z,16.05
2019-01-20T04:41:21.216Z,15.70
2019-01-20T04:43:48.506Z,17.25
2019-01-20T04:46:15.730Z,12.65
2019-01-20T04:48:42.949Z,16.52
2019-01-20T04:51:10.635Z,15.05
2019-01-20T04:53:38.231Z,17.27
2019-01-20T04:56:05.457Z,17.87
2019-01-20T04:58:32.677Z,14.73
2019-01-20T05:00:59.899Z,15.65
2019-01-20T05:03:27.125Z,18.00
2019-01-20T05:05:54.345Z,19.52
2019-01-20T05:08:21.570Z,13.88
2019-01-20T05:10:48.790Z,16.35
2019-01-20T05:13:16.015Z,16.67
2019-01-20T05:15:43.232Z,17.92
2019-01-20T05:18:10.459Z,13.13
2019-01-20T05:20:37.674Z,13.70
2019-01-20T05:23:04.902Z,17.40
2019-01-20T05:25:32.122Z,18.27
2019-01-20T05:27:59.362Z,17.48
2019-01-20T05:30:26.586Z,14.93
2019-01-20T05:32:53.822Z,13.32
2019-01-20T05:35:21.210Z,16.20
2019-01-20T05:37:48.432Z,17.98
2019-01-20T05:40:17.583Z,16.90
2019-01-20T05:42:46.346Z,14.40
2019-01-20T05:45:15.110Z,18.45
2019-01-20T05:47:42.326Z,15.48
2019-01-20T05:50:10.825Z,14.93
2019-01-20T05:52:38.044Z,16.65
2019-01-20T05:55:07.142Z,16.97
2019-01-20T05:57:34.735Z,19.67
2019-01-20T06:00:01.965Z,16.10
2019-01-20T06:02:29.183Z,15.58
2019-01-20T06:04:56.423Z,16.15
2019-01-20T06:07:23.638Z,17.62
2019-01-20T06:09:50.880Z,15.85
2019-01-20T06:12:18.099Z,14.65
2019-01-20T06:14:45.322Z,17.07
2019-01-20T06:17:12.543Z,15.88
2019-01-20T06:19:39.787Z,14.85
2019-01-20T06:22:07.022Z,15.15
2019-01-20T06:24:34.609Z,14.90
2019-01-20T06:27:01.830Z,15.90
2019-01-20T06:29:29.059Z,14.83
2019-01-20T06:31:56.281Z,16.25
2019-01-20T06:34:23.498Z,18.07
2019-01-20T06:36:50.722Z,17.75
2019-01-20T06:39:17.946Z,17.23
2019-01-20T06:41:45.166Z,18.40
2019-01-20T06:44:12.395Z,17.48
2019-01-20T06:46:39.615Z,17.67
2019-01-20T06:49:06.842Z,16.73
2019-01-20T06:51:34.049Z,19.75
2019-01-20T06:54:01.279Z,23.62
2019-01-20T06:56:28.494Z,16.10
2019-01-20T06:58:55.723Z,16.55
2019-01-20T07:01:22.959Z,17.52
2019-01-20T07:03:50.182Z,26.40
2019-01-20T07:06:17.406Z,24.63
2019-01-20T07:08:44.629Z,23.10
2019-01-20T07:11:11.847Z,22.65
2019-01-20T07:13:39.085Z,24.27
2019-01-20T07:16:06.307Z,20.75
2019-01-20T07:18:33.524Z,20.23
2019-01-20T07:21:00.782Z,20.02
2019-01-20T07:23:27.998Z,18.30
2019-01-20T07:25:55.230Z,17.98
2019-01-20T07:28:22.442Z,18.20
2019-01-20T07:30:49.671Z,19.27
2019-01-20T07:33:16.895Z,18.07
2019-01-20T07:35:44.118Z,19.67
2019-01-20T07:38:11.334Z,16.50
2019-01-20T07:40:38.571Z,17.02
2019-01-20T07:43:05.786Z,16.87
2019-01-20T07:45:33.014Z,14.07
2019-01-20T07:48:00.227Z,17.17
2019-01-20T07:50:27.454Z,15.23
2019-01-20T07:52:54.674Z,15.13
2019-01-20T07:55:21.903Z,14.58
2019-01-20T07:57:49.290Z,14.87
2019-01-20T08:00:23.258Z,18.02
2019-01-20T08:02:50.485Z,14.43
2019-01-20T08:05:17.710Z,15.60
2019-01-20T08:07:44.927Z,15.08
2019-01-20T08:10:19.422Z,15.45
2019-01-20T08:12:46.642Z,17.92
2019-01-20T08:15:14.738Z,17.73
2019-01-20T08:17:42.030Z,19.80
2019-01-20T08:20:10.791Z,16.17
2019-01-20T08:22:38.018Z,14.55
2019-01-20T08:25:06.978Z,14.03
2019-01-20T08:27:34.203Z,16.05
2019-01-20T08:30:01.479Z,17.60
2019-01-20T08:32:28.711Z,18.45
2019-01-20T08:34:55.940Z,17.27
2019-01-20T08:37:28.827Z,16.62
2019-01-20T08:39:52.101Z,17.25
2019-01-20T08:42:19.326Z,16.70
2019-01-20T08:44:46.542Z,16.25
2019-01-20T08:47:14.960Z,17.37
2019-01-20T08:49:42.191Z,16.05
2019-01-20T08:52:09.386Z,18.77
2019-01-20T08:54:36.659Z,16.82
2019-01-20T08:57:03.878Z,21.25
2019-01-20T08:59:31.102Z,19.98
2019-01-20T09:01:58.328Z,19.52
2019-01-20T09:04:25.557Z,20.27
2019-01-20T09:06:52.793Z,23.02
2019-01-20T09:09:20.042Z,27.50
2019-01-20T09:11:47.267Z,21.75
2019-01-20T09:14:14.500Z,27.05
2019-01-20T09:16:41.731Z,21.30
2019-01-20T09:19:08.958Z,21.10
2019-01-20T09:21:36.199Z,18.80
2019-01-20T09:24:03.502Z,21.50
2019-01-20T09:26:30.721Z,17.70
2019-01-20T09:28:57.947Z,17.60
2019-01-20T09:31:25.166Z,22.15
2019-01-20T09:33:52.398Z,20.80
2019-01-20T09:36:19.627Z,19.70
2019-01-20T09:38:46.854Z,18.95
2019-01-20T09:41:14.079Z,19.00
2019-01-20T09:43:47.098Z,21.35
2019-01-20T09:46:10.467Z,22.90
2019-01-20T09:48:37.879Z,21.93
2019-01-20T09:51:05.659Z,20.85
2019-01-20T09:53:32.892Z,20.62
2019-01-20T09:56:00.110Z,17.98
2019-01-20T09:58:27.338Z,20.12
2019-01-20T10:00:54.639Z,18.75
2019-01-20T10:03:21.877Z,22.55
2019-01-20T10:05:49.104Z,19.20
2019-01-20T10:08:16.339Z,20.80
2019-01-20T10:10:43.650Z,17.98
2019-01-20T10:13:10.890Z,20.43
2019-01-20T10:15:38.105Z,21.57
2019-01-20T10:18:05.416Z,22.07
2019-01-20T10:20:33.017Z,18.82
2019-01-20T10:23:00.666Z,18.37
2019-01-20T10:25:27.930Z,18.70
2019-01-20T10:27:55.238Z,17.92
2019-01-20T10:30:24.008Z,19.55
2019-01-20T10:32:51.231Z,19.10
2019-01-20T10:35:20.093Z,17.50
2019-01-20T10:37:47.487Z,19.73
2019-01-20T10:40:14.711Z,19.82
2019-01-20T10:42:41.939Z,19.40
2019-01-20T10:45:10.145Z,18.45
2019-01-20T10:47:37.366Z,17.57
2019-01-20T10:50:06.122Z,20.00
2019-01-20T10:52:33.356Z,22.70
2019-01-20T10:55:00.573Z,19.10
2019-01-20T10:57:27.798Z,19.17
2019-01-20T10:59:55.020Z,21.50
2019-01-20T11:02:22.242Z,19.90
2019-01-20T11:04:49.467Z,19.02
2019-01-20T11:07:16.686Z,16.90
2019-01-20T11:09:43.923Z,19.27
2019-01-20T11:12:11.211Z,19.60
2019-01-20T11:14:38.435Z,18.37
2019-01-20T11:17:05.659Z,17.80
2019-01-20T11:19:32.887Z,18.32
2019-01-20T11:22:00.103Z,20.95
2019-01-20T11:24:27.326Z,15.30
2019-01-20T11:26:54.547Z,20.12
2019-01-20T11:29:21.770Z,18.77
2019-01-20T11:31:48.986Z,17.20
2019-01-20T11:34:16.290Z,20.27
2019-01-20T11:36:43.511Z,18.02
2019-01-20T11:39:10.743Z,19.07
2019-01-20T11:41:37.958Z,17.82
2019-01-20T11:44:05.466Z,17.85
2019-01-20T11:46:32.704Z,19.12
2019-01-20T11:49:00.011Z,19.48
2019-01-20T11:51:27.234Z,18.90
2019-01-20T11:53:54.462Z,19.07
2019-01-20T11:56:21.682Z,19.92
2019-01-20T11:58:48.907Z,22.55
2019-01-20T12:01:16.131Z,19.12
2019-01-20T12:03:43.390Z,18.98
2019-01-20T12:06:10.623Z,20.02
2019-01-20T12:08:37.850Z,21.87
2019-01-20T12:11:05.076Z,17.00
2019-01-20T12:13:32.573Z,20.43
2019-01-20T12:15:59.803Z,19.20
2019-01-20T12:18:27.059Z,20.40
2019-01-20T12:20:54.282Z,19.57
2019-01-20T12:23:21.506Z,18.23
2019-01-20T12:25:48.731Z,18.45
2019-01-20T12:28:15.964Z,19.15
2019-01-20T12:30:43.183Z,21.07
2019-01-20T12:33:11.479Z,20.40
2019-01-20T12:35:38.709Z,16.27
2019-01-20T12:38:05.930Z,19.95
2019-01-20T12:40:40.797Z,18.02
2019-01-20T12:43:08.035Z,17.87
2019-01-20T12:45:35.251Z,18.77
2019-01-20T12:48:02.550Z,21.02
2019-01-20T12:50:29.892Z,19.50
2019-01-20T12:52:57.161Z,20.77
2019-01-20T12:55:24.389Z,20.05
2019-01-20T12:57:51.606Z,20.05
2019-01-20T13:00:19.503Z,19.42
2019-01-20T13:02:46.813Z,21.52
2019-01-20T13:05:14.111Z,18.50
2019-01-20T13:07:41.343Z,19.37
2019-01-20T13:10:09.941Z,19.82
2019-01-20T13:12:40.363Z,21.33
2019-01-20T13:15:09.131Z,21.27
2019-01-20T13:17:36.375Z,21.20
2019-01-20T13:20:05.283Z,20.30
2019-01-20T13:22:32.504Z,19.77
2019-01-20T13:24:59.734Z,17.65
2019-01-20T13:27:26.954Z,17.60
2019-01-20T13:29:54.179Z,18.45
2019-01-20T13:32:21.400Z,18.12
2019-01-20T13:40:25.178Z,17.48
2019-01-20T13:42:52.399Z,15.70
2019-01-20T13:45:21.227Z,17.45
2019-01-20T13:49:14.200Z,17.95
2019-01-20T13:51:50.704Z,17.77
2019-01-20T13:54:16.457Z,16.52
2019-01-20T13:56:43.679Z,15.08
2019-01-20T13:59:10.914Z,16.42
2019-01-20T14:01:38.135Z,15.63
2019-01-20T14:04:05.367Z,18.27
2019-01-20T14:06:32.959Z,17.98
2019-01-20T14:09:00.191Z,16.70
2019-01-20T14:11:27.483Z,17.10
2019-01-20T14:13:54.710Z,18.90
2019-01-20T14:16:21.946Z,18.05
2019-01-20T14:18:49.167Z,15.95
2019-01-20T14:21:16.386Z,16.75
2019-01-20T14:23:43.606Z,16.87
2019-01-20T14:26:10.838Z,16.12
2019-01-20T14:28:38.055Z,19.25
2019-01-20T14:31:05.285Z,15.63
2019-01-20T14:33:32.494Z,15.65
2019-01-20T14:35:59.719Z,15.88
2019-01-20T14:38:26.939Z,19.32
2019-01-20T14:40:54.162Z,18.10
2019-01-20T14:43:21.382Z,18.15
2019-01-20T14:45:48.610Z,18.10
2019-01-20T14:48:15.826Z,16.17
2019-01-20T14:50:43.054Z,15.18
2019-01-20T14:53:10.265Z,15.10
2019-01-20T14:55:37.500Z,15.95
2019-01-20T14:58:04.786Z,16.85
2019-01-20T15:00:33.561Z,17.82
2019-01-20T15:03:00.859Z,17.73
2019-01-20T15:05:28.093Z,17.12
2019-01-20T15:07:55.312Z,20.95
2019-01-20T15:10:22.538Z,23.05
2019-01-20T15:12:50.366Z,19.27
2019-01-20T15:15:25.029Z,17.80
2019-01-20T15:17:52.243Z,18.77
2019-01-20T15:20:19.478Z,18.98
2019-01-20T15:22:46.691Z,19.05
2019-01-20T15:25:15.186Z,16.82
2019-01-20T15:27:42.406Z,20.00
2019-01-20T15:30:14.407Z,18.35
2019-01-20T15:32:41.654Z,18.25
2019-01-20T15:35:08.878Z,20.82
2019-01-20T15:37:36.103Z,18.40
2019-01-20T15:40:04.558Z,18.90
2019-01-20T15:42:31.788Z,17.80
2019-01-20T15:44:59.007Z,18.05
2019-01-20T15:47:26.234Z,19.40
2019-01-20T15:49:53.866Z,19.57
2019-01-20T15:52:21.095Z,21.40
2019-01-20T15:54:48.318Z,19.90
2019-01-20T15:57:15.538Z,18.05
2019-01-20T15:59:42.773Z,18.50
2019-01-20T16:02:09.987Z,18.65
2019-01-20T16:04:37.219Z,22.27
2019-01-20T16:07:04.441Z,17.65
2019-01-20T16:09:31.687Z,20.37
2019-01-20T16:11:58.923Z,20.08
2019-01-20T16:14:26.145Z,21.15
2019-01-20T16:16:53.362Z,23.30
2019-01-20T16:19:20.585Z,25.25
2019-01-20T16:21:47.820Z,26.55
2019-01-20T16:24:15.065Z,23.57
2019-01-20T16:26:42.760Z,19.85
2019-01-20T16:29:09.974Z,23.45
2019-01-20T16:31:39.923Z,22.77
2019-01-20T16:34:06.170Z,22.35
2019-01-20T16:36:33.399Z,24.65
2019-01-20T16:39:00.614Z,20.23
2019-01-20T16:41:27.840Z,20.43
2019-01-20T16:43:55.059Z,18.85
2019-01-20T16:46:22.281Z,18.37
2019-01-20T16:48:49.498Z,19.60
2019-01-20T16:51:16.726Z,20.35
2019-01-20T16:53:43.946Z,20.77
2019-01-20T16:56:11.174Z,21.12
2019-01-20T16:58:38.390Z,19.70
2019-01-20T17:01:05.683Z,20.90
2019-01-20T17:03:32.906Z,20.48
2019-01-20T17:06:00.134Z,20.10
2019-01-20T17:08:27.367Z,19.80
2019-01-20T17:10:54.603Z,20.72
2019-01-20T17:13:21.883Z,18.60
2019-01-20T17:15:49.103Z,20.10
2019-01-20T17:18:16.490Z,21.60
2019-01-20T17:20:43.796Z,22.85
2019-01-20T17:23:11.022Z,20.50
2019-01-20T17:25:38.248Z,21.35
2019-01-20T17:28:05.540Z,22.52
2019-01-20T17:30:34.186Z,20.25
2019-01-20T17:33:01.781Z,21.00
2019-01-20T17:35:29.010Z,22.02
2019-01-20T17:37:56.260Z,21.85
2019-01-20T17:40:27.638Z,19.15
2019-01-20T17:42:55.249Z,22.85
2019-01-20T17:45:23.651Z,21.00
2019-01-20T17:47:50.862Z,20.57
2019-01-20T17:50:22.566Z,23.42
2019-01-20T17:52:49.792Z,24.07
2019-01-20T17:55:17.095Z,21.50
2019-01-20T17:57:44.323Z,20.80
2019-01-20T18:00:13.091Z,20.10
2019-01-20T18:02:40.337Z,19.67
2019-01-20T18:05:09.090Z,22.52
2019-01-20T18:07:36.319Z,21.93
2019-01-20T18:10:05.839Z,20.62
2019-01-20T18:12:33.325Z,20.60
2019-01-20T18:15:00.548Z,22.82
2019-01-20T18:17:27.779Z,18.85
2019-01-20T18:19:55.003Z,19.52
2019-01-20T18:22:22.223Z,21.55
2019-01-20T18:24:49.490Z,20.68
2019-01-20T18:27:16.718Z,22.05
2019-01-20T18:29:43.947Z,24.57
2019-01-20T18:32:11.174Z,22.27
2019-01-20T18:34:38.420Z,23.15
2019-01-20T18:37:05.641Z,23.22
2019-01-20T18:39:32.862Z,22.65
2019-01-20T18:42:00.103Z,24.85
2019-01-20T18:44:27.322Z,19.80
2019-01-20T18:46:54.779Z,22.40
2019-01-20T18:49:22.006Z,20.27
2019-01-20T18:51:49.231Z,19.60
2019-01-20T18:54:16.463Z,19.98
2019-01-20T18:56:43.679Z,21.35
2019-01-20T18:59:10.910Z,21.27
2019-01-20T19:01:38.182Z,20.27
2019-01-20T19:04:05.419Z,23.10
2019-01-20T19:06:32.643Z,23.15
2019-01-20T19:08:59.866Z,25.80
2019-01-20T19:11:27.121Z,20.05
2019-01-20T19:13:54.346Z,23.00
2019-01-20T19:16:21.567Z,21.68
2019-01-20T19:18:48.811Z,21.30
2019-01-20T19:21:16.016Z,20.45
2019-01-20T19:23:43.256Z,20.32
2019-01-20T19:26:10.479Z,21.77
2019-01-20T19:28:37.710Z,20.92
2019-01-20T19:31:04.935Z,20.85
2019-01-20T19:33:32.162Z,21.45
2019-01-20T19:35:59.390Z,19.73
2019-01-20T19:38:26.617Z,20.20
2019-01-20T19:40:53.927Z,21.35
2019-01-20T19:43:21.147Z,23.85
2019-01-20T19:45:48.362Z,23.25
2019-01-20T19:48:20.024Z,20.90
2019-01-20T19:50:44.546Z,20.50
2019-01-20T19:53:11.771Z,22.42
2019-01-20T19:55:39.002Z,23.10
2019-01-20T19:58:06.217Z,23.80
2019-01-20T20:00:33.451Z,19.62
2019-01-20T20:03:00.762Z,21.60
2019-01-20T20:05:28.054Z,21.70
2019-01-20T20:07:55.848Z,23.25
2019-01-20T20:10:24.138Z,21.60
2019-01-20T20:12:51.535Z,21.23
2019-01-20T20:15:19.837Z,23.75
2019-01-20T20:17:47.198Z,22.20
2019-01-20T20:20:15.601Z,20.68
2019-01-20T20:22:42.850Z,20.85
2019-01-20T20:25:11.403Z,23.32
2019-01-20T20:27:38.615Z,22.80
2019-01-20T20:30:07.378Z,23.50
2019-01-20T20:32:34.594Z,18.48
2019-01-20T20:35:01.822Z,22.62
2019-01-20T20:37:29.058Z,22.00
2019-01-20T20:39:56.295Z,22.40
2019-01-20T20:42:23.517Z,23.55
2019-01-20T20:44:50.763Z,24.07
2019-01-20T20:47:17.983Z,23.25
2019-01-20T20:49:45.234Z,22.73
2019-01-20T20:52:12.474Z,22.13
2019-01-20T20:54:39.699Z,23.22
2019-01-20T20:57:06.924Z,20.57
2019-01-20T20:59:34.207Z,31.00
2019-01-20T21:02:01.426Z,25.88
2019-01-20T21:04:28.692Z,23.02
2019-01-20T21:06:55.969Z,25.05
2019-01-20T21:09:23.178Z,25.85
2019-01-20T21:11:50.402Z,22.90
2019-01-20T21:14:17.622Z,24.90
2019-01-20T21:16:44.880Z,21.50
2019-01-20T21:19:12.090Z,20.10
2019-01-20T21:21:39.371Z,24.85
2019-01-20T21:24:06.604Z,22.73
2019-01-20T21:26:33.840Z,25.15
2019-01-20T21:29:01.061Z,23.10
2019-01-20T21:31:28.282Z,21.87
2019-01-20T21:33:55.498Z,22.58
2019-01-20T21:36:22.726Z,22.65
2019-01-20T21:38:49.945Z,25.05
2019-01-20T21:41:17.173Z,22.82
2019-01-20T21:43:44.391Z,23.95
2019-01-20T21:46:11.619Z,22.02
2019-01-20T21:48:38.839Z,23.73
2019-01-20T21:51:06.066Z,26.23
2019-01-20T21:53:33.289Z,24.20
2019-01-20T21:56:00.518Z,24.37
2019-01-20T21:58:27.738Z,23.18
2019-01-20T22:00:54.973Z,23.55
2019-01-20T22:03:22.293Z,25.43
2019-01-20T22:05:49.587Z,25.12
2019-01-20T22:08:16.878Z,24.52
2019-01-20T22:10:44.139Z,22.42
2019-01-20T22:13:11.383Z,23.60
2019-01-20T22:15:38.611Z,24.02
2019-01-20T22:18:05.830Z,22.35
2019-01-20T22:20:33.063Z,23.45
2019-01-20T22:23:00.303Z,21.25
2019-01-20T22:25:27.528Z,24.52
2019-01-20T22:27:54.791Z,23.27
2019-01-20T22:30:23.199Z,24.57
2019-01-20T22:32:50.415Z,23.18
2019-01-20T22:35:17.638Z,23.75
2019-01-20T22:37:44.875Z,20.70
2019-01-20T22:40:13.483Z,22.80
2019-01-20T22:42:40.766Z,22.70
2019-01-20T22:45:09.572Z,23.45
2019-01-20T22:47:36.787Z,20.52
2019-01-20T22:50:05.782Z,23.60
2019-01-20T22:52:33.023Z,22.40
2019-01-20T22:55:00.257Z,24.30
2019-01-20T22:57:27.463Z,20.45
2019-01-20T22:59:54.698Z,21.42
2019-01-20T23:02:21.941Z,25.88
2019-01-20T23:04:49.162Z,23.42
2019-01-20T23:07:16.434Z,22.45
2019-01-20T23:09:43.679Z,24.10
2019-01-20T23:12:10.915Z,21.42
2019-01-20T23:14:38.131Z,24.55
2019-01-20T23:17:07.943Z,21.48
2019-01-20T23:19:34.314Z,20.55
2019-01-20T23:22:01.644Z,24.05
2019-01-20T23:24:28.867Z,23.42
2019-01-20T23:26:56.136Z,22.90
2019-01-20T23:29:23.403Z,22.17
2019-01-20T23:31:50.626Z,23.25
2019-01-20T23:34:17.859Z,24.18
2019-01-20T23:36:45.094Z,21.15
2019-01-20T23:39:12.509Z,22.90
2019-01-20T23:41:39.784Z,23.67
2019-01-20T23:44:06.999Z,22.02
2019-01-20T23:46:34.227Z,22.13
2019-01-20T23:49:01.446Z,25.90
2019-01-20T23:51:28.677Z,23.87
2019-01-20T23:53:55.887Z,22.42
2019-01-20T23:56:23.136Z,24.70
2019-01-20T23:58:50.374Z,23.52
